Thursday, November 23, 2017, 1:30 PM EST
Back to Local

KDOV, Dover Air Force Base

Location: Dover, DE, United States Lat: 39.133
Local Time: 1:30 PM EST (18:30 GMT) Lon: -75.467
Time Zone: US/Eastern Elev: 29 ft

Show me the last for .
Show Coded

Time T Td Feel RH Dir Speed Gust Alt SLP Vis Weather Sky Remarks
2017-11-23 12:56 41 30 37 63 310° 7 - 30.09 30.10 10 CLR 6-hr Min Temp (1pm): 29.8°F
6-hr Max Temp (1pm): 41.2°F
2017-11-23 11:56 39 28 33 63 310° 9 - 30.11 30.12 10 CLR None
2017-11-23 10:56 37 26 31 65 320° 8 - 30.15 30.16 10 CLR None
2017-11-23 09:56 36 26 27 66 300° 13 - 30.16 30.17 10 CLR None
2017-11-23 08:56 35 26 28 68 310° 10 - 30.18 30.19 10 CLR None
2017-11-23 07:56 32 27 26 80 310° 7 - 30.17 30.18 10 CLR None
2017-11-23 06:56 30 26 24 83 280° 6 - 30.16 30.17 10 CLR 6-hr Min Temp (7am): 29.5°F
6-hr Max Temp (7am): 35.4°F
2017-11-23 05:56 31 26 27 81 300° 3 - 30.15 30.16 10 CLR None
2017-11-23 04:56 31 26 25 80 310° 7 - 30.15 30.16 10 CLR None
2017-11-23 03:56 32 26 26 80 300° 6 - 30.15 30.16 10 CLR None
2017-11-23 02:56 33 26 27 76 290° 6 - 30.15 30.16 10 CLR None
2017-11-23 01:56 34 27 29 73 280° 6 - 30.15 30.16 10 CLR None
2017-11-23 00:56 36 28 28 73 310° 10 - 30.12 30.13 10 CLR 6-hr Min Temp (1am): 35.6°F
6-hr Max Temp (1am): 45.9°F
2017-11-22 23:56 37 28 28 69 310° 14 - 30.13 30.14 10 CLR 24-hr Min Temp (12am): 36.9°F
24-hr Max Temp (12am): 58.5°F
2017-11-22 22:56 38 29 27 69 310° 13 24 30.13 30.14 10 CLR None
2017-11-22 21:56 39 31 31 70 310° 16 - 30.13 30.14 10 CLR None
2017-11-22 20:56 40 32 33 71 310° 13 - 30.11 30.12 10 CLR None
2017-11-22 19:56 43 34 36 69 330° 13 - 30.09 30.10 10 BKN046 None
2017-11-22 18:56 46 37 41 70 320° 10 - 30.08 30.09 10 OVC050 6-hr Min Temp (7pm): 45.9°F
6-hr Max Temp (7pm): 58.5°F
2017-11-22 17:56 47 27 41 45 330° 13 - 30.06 30.07 10 OVC050 None
2017-11-22 16:56 48 33 40 55 320° 20 25 30.03 30.04 10 OVC050 Peak wind: 31 mph (27 kts) from 320° at 00 min
2017-11-22 15:56 52 32 - 46 310° 21 28 29.98 29.99 10 FEW055 None
2017-11-22 14:56 54 32 - 43 300° 22 25 29.95 29.96 10 CLR Peak wind: 31 mph (27 kts) from 300° at 16 min
2017-11-22 13:56 57 32 - 39 320° 20 29 29.94 29.95 10 SCT050 None

Support USWX by starting your Amazon purchase here.